Time;durP1;ratioP1;P1;durP2;ratioP2;P2;SDS_P1;SDS_P2;PMS_P1;PMS_P2;Temp;Humidity;BMP_temperature;BMP_pressure;BME280_temperature;BME280_humidity;BME280_pressure;Samples;Min_cycle;Max_cycle;Signal;HPM_P1;HPM_P2
2024/01/01 00:01:28;;;;;;;24.35;12.60;;;;;;;;;;5061643;28;20550;-79
2024/01/01 00:03:54;;;;;;;28.10;15.32;;;;;;;;;;5065629;28;20043;-80
2024/01/01 00:06:20;;;;;;;29.77;19.65;;;;;;;;;;5069685;28;20054;-79
2024/01/01 00:08:46;;;;;;;33.78;22.67;;;;;;;;;;5068842;28;20044;-80
2024/01/01 00:11:12;;;;;;;42.05;28.35;;;;;;;;;;5063591;28;20036;-78
2024/01/01 00:13:39;;;;;;;44.70;29.83;;;;;;;;;;5062751;28;20051;-79
2024/01/01 00:16:05;;;;;;;59.10;38.33;;;;;;;;;;5061144;28;20040;-79
2024/01/01 00:18:31;;;;;;;61.70;39.78;;;;;;;;;;5061521;28;20438;-80
2024/01/01 00:20:57;;;;;;;59.95;34.30;;;;;;;;;;5066477;28;20040;-80
2024/01/01 00:23:23;;;;;;;45.85;30.00;;;;;;;;;;5077534;28;20048;-80
2024/01/01 00:25:49;;;;;;;55.13;34.38;;;;;;;;;;5064774;28;20121;-79
2024/01/01 00:28:15;;;;;;;37.40;26.13;;;;;;;;;;5064486;28;20432;-79
2024/01/01 00:30:41;;;;;;;36.83;20.23;;;;;;;;;;5059212;28;20480;-80
2024/01/01 00:33:07;;;;;;;34.22;21.45;;;;;;;;;;5067219;28;20051;-80
2024/01/01 00:35:34;;;;;;;24.73;14.95;;;;;;;;;;5067466;28;20044;-80
2024/01/01 00:38:00;;;;;;;28.02;17.38;;;;;;;;;;5071880;28;20067;-81
2024/01/01 00:40:26;;;;;;;34.58;19.90;;;;;;;;;;5068640;28;20051;-79
2024/01/01 00:42:52;;;;;;;36.53;20.88;;;;;;;;;;5069046;28;20047;-78
2024/01/01 00:45:18;;;;;;;35.28;21.80;;;;;;;;;;5081040;28;20106;-79
2024/01/01 00:47:45;;;;;;;34.78;21.80;;;;;;;;;;5065329;28;20070;-79
2024/01/01 00:50:11;;;;;;;50.70;33.38;;;;;;;;;;5064882;28;20052;-76
2024/01/01 00:52:37;;;;;;;51.78;30.17;;;;;;;;;;5072114;28;20048;-77
2024/01/01 00:55:05;;;;;;;43.95;24.83;;;;;;;;;;5079162;28;20035;-77
2024/01/01 00:57:31;;;;;;;40.90;24.38;;;;;;;;;;5059645;28;20040;-80
2024/01/01 00:59:57;;;;;;;36.60;25.98;;;;;;;;;;5061723;28;20157;-80
2024/01/01 01:02:23;;;;;;;40.00;25.23;;;;;;;;;;5068933;28;20048;-80
2024/01/01 01:04:49;;;;;;;41.97;25.88;;;;;;;;;;5064901;28;20136;-78
2024/01/01 01:07:15;;;;;;;37.80;22.27;;;;;;;;;;5061105;28;20060;-80
2024/01/01 01:09:41;;;;;;;19.48;13.82;;;;;;;;;;5086389;28;20123;-80
2024/01/01 01:12:07;;;;;;;20.50;8.90;;;;;;;;;;5062875;28;20178;-80
2024/01/01 01:14:33;;;;;;;19.95;12.20;;;;;;;;;;5061833;28;20135;-79
2024/01/01 01:16:59;;;;;;;23.00;16.30;;;;;;;;;;5071696;28;20560;-79
2024/01/01 01:19:25;;;;;;;29.08;19.73;;;;;;;;;;5076148;28;20048;-79
2024/01/01 01:21:52;;;;;;;39.45;24.95;;;;;;;;;;5076258;28;20495;-79
2024/01/01 01:24:20;;;;;;;44.50;27.95;;;;;;;;;;5063603;28;20123;-80
2024/01/01 01:26:46;;;;;;;66.82;44.13;;;;;;;;;;5074253;28;20260;-78
2024/01/01 01:29:12;;;;;;;89.05;58.53;;;;;;;;;;5067082;28;20420;-79
2024/01/01 01:31:41;;;;;;;93.10;62.95;;;;;;;;;;5087109;28;20048;-79
2024/01/01 01:34:07;;;;;;;104.05;65.25;;;;;;;;;;5062804;28;20040;-79
2024/01/01 01:36:33;;;;;;;106.57;70.18;;;;;;;;;;5067740;28;20053;-79
2024/01/01 01:38:59;;;;;;;83.97;54.50;;;;;;;;;;5071505;28;20048;-79
2024/01/01 01:41:25;;;;;;;71.55;50.75;;;;;;;;;;5065449;28;20052;-80
2024/01/01 01:43:52;;;;;;;80.43;56.15;;;;;;;;;;5064640;28;20380;-79
2024/01/01 01:46:18;;;;;;;85.90;56.92;;;;;;;;;;5066190;28;20553;-79
2024/01/01 01:48:44;;;;;;;79.05;50.92;;;;;;;;;;5063665;28;20149;-79
2024/01/01 01:51:10;;;;;;;70.32;47.05;;;;;;;;;;5065626;28;20181;-80
2024/01/01 01:53:37;;;;;;;45.35;29.75;;;;;;;;;;5064289;28;20043;-79
2024/01/01 01:56:04;;;;;;;25.15;17.75;;;;;;;;;;5059383;28;20047;-79
2024/01/01 01:58:34;;;;;;;58.67;40.55;;;;;;;;;;5060496;28;20056;-80
2024/01/01 02:01:00;;;;;;;69.55;47.47;;;;;;;;;;5063517;28;20415;-79
2024/01/01 02:03:26;;;;;;;81.75;54.17;;;;;;;;;;5065048;28;20048;-79
2024/01/01 02:05:54;;;;;;;51.95;38.05;;;;;;;;;;5086958;28;20079;-79
2024/01/01 02:08:21;;;;;;;60.60;37.30;;;;;;;;;;5065934;28;20044;-79
2024/01/01 02:10:47;;;;;;;48.50;34.33;;;;;;;;;;5067683;28;20381;-79
2024/01/01 02:13:23;;;;;;;45.13;29.52;;;;;;;;;;5074546;28;20040;-79
2024/01/01 02:15:49;;;;;;;34.90;22.40;;;;;;;;;;5061065;28;20048;-79
2024/01/01 02:18:15;;;;;;;34.15;24.45;;;;;;;;;;5065221;28;20044;-80
2024/01/01 02:20:41;;;;;;;33.58;24.20;;;;;;;;;;5065650;28;20048;-80
2024/01/01 02:23:07;;;;;;;34.85;25.77;;;;;;;;;;5084167;28;20105;-80
2024/01/01 02:25:34;;;;;;;34.03;24.00;;;;;;;;;;5068176;28;20472;-79
2024/01/01 02:28:00;;;;;;;37.42;27.20;;;;;;;;;;5067366;28;20411;-80
2024/01/01 02:30:26;;;;;;;40.80;31.10;;;;;;;;;;5065314;28;20048;-80
2024/01/01 02:32:52;;;;;;;43.80;31.98;;;;;;;;;;5072239;28;20097;-80
2024/01/01 02:35:18;;;;;;;48.70;34.45;;;;;;;;;;5065235;28;20048;-79
2024/01/01 02:37:44;;;;;;;49.30;35.53;;;;;;;;;;5062351;28;20057;-79
2024/01/01 02:40:11;;;;;;;50.40;37.97;;;;;;;;;;5065238;28;20048;-79
2024/01/01 02:42:37;;;;;;;50.63;38.08;;;;;;;;;;5083576;28;20446;-80
2024/01/01 02:45:04;;;;;;;47.80;33.58;;;;;;;;;;5067491;28;20036;-79
2024/01/01 02:47:30;;;;;;;41.85;30.27;;;;;;;;;;5064040;28;20496;-79
2024/01/01 02:49:56;;;;;;;38.92;26.45;;;;;;;;;;5084768;28;20071;-80
2024/01/01 02:52:22;;;;;;;29.70;19.63;;;;;;;;;;5061804;28;20076;-79
2024/01/01 02:54:48;;;;;;;27.23;17.73;;;;;;;;;;5066420;28;20068;-80
2024/01/01 02:57:14;;;;;;;12.32;7.00;;;;;;;;;;5068441;28;20448;-79
2024/01/01 02:59:41;;;;;;;14.40;7.35;;;;;;;;;;5059648;28;20050;-78
2024/01/01 03:02:09;;;;;;;16.17;5.95;;;;;;;;;;5061000;28;20545;-79
2024/01/01 03:04:35;;;;;;;12.45;5.35;;;;;;;;;;5065270;28;20041;-79
2024/01/01 03:07:01;;;;;;;14.85;7.95;;;;;;;;;;5065656;28;20047;-79
2024/01/01 03:09:27;;;;;;;15.60;8.60;;;;;;;;;;5058244;28;20068;-79
2024/01/01 03:11:53;;;;;;;45.90;28.17;;;;;;;;;;5062305;28;20119;-80
2024/01/01 03:14:19;;;;;;;49.63;31.58;;;;;;;;;;5067790;28;20059;-79
2024/01/01 03:16:45;;;;;;;52.58;31.35;;;;;;;;;;5061483;28;20040;-80
2024/01/01 03:19:11;;;;;;;51.05;32.08;;;;;;;;;;5072198;28;20048;-80
2024/01/01 03:21:38;;;;;;;44.35;26.67;;;;;;;;;;5085223;28;20479;-79
2024/01/01 03:24:04;;;;;;;39.35;21.95;;;;;;;;;;5066915;28;21968;-80
2024/01/01 03:26:30;;;;;;;29.40;17.77;;;;;;;;;;5066965;28;20048;-79
2024/01/01 03:28:56;;;;;;;36.72;18.98;;;;;;;;;;5069076;28;20051;-79
2024/01/01 03:31:22;;;;;;;34.47;22.63;;;;;;;;;;5061938;28;20127;-80
2024/01/01 03:33:48;;;;;;;38.00;23.00;;;;;;;;;;5068336;28;20044;-80
2024/01/01 03:36:14;;;;;;;38.33;22.40;;;;;;;;;;5065622;28;20035;-79
2024/01/01 03:38:40;;;;;;;41.33;24.80;;;;;;;;;;5066551;28;20044;-79
2024/01/01 03:41:07;;;;;;;44.72;25.02;;;;;;;;;;5080406;28;20054;-79
2024/01/01 03:43:33;;;;;;;42.15;23.15;;;;;;;;;;5058904;28;20056;-79
2024/01/01 03:45:59;;;;;;;45.13;26.92;;;;;;;;;;5065547;28;20135;-79
2024/01/01 03:48:25;;;;;;;39.85;22.73;;;;;;;;;;5064801;28;20119;-79
2024/01/01 03:50:51;;;;;;;44.33;22.63;;;;;;;;;;5070954;28;20040;-79
2024/01/01 03:53:17;;;;;;;39.22;19.55;;;;;;;;;;5088063;28;20506;-80
2024/01/01 03:55:43;;;;;;;37.28;19.23;;;;;;;;;;5065733;28;20036;-80
2024/01/01 03:58:10;;;;;;;21.77;9.43;;;;;;;;;;5064949;28;20384;-79
2024/01/01 04:00:36;;;;;;;26.55;4.72;;;;;;;;;;5057884;28;20114;-79
2024/01/01 04:03:03;;;;;;;18.63;4.93;;;;;;;;;;5066023;28;20542;-79
2024/01/01 04:05:29;;;;;;;23.70;4.78;;;;;;;;;;5060743;28;20097;-80
2024/01/01 04:07:55;;;;;;;22.33;5.50;;;;;;;;;;5060204;28;20054;-80
2024/01/01 04:10:21;;;;;;;18.45;4.80;;;;;;;;;;5070063;28;20581;-79
2024/01/01 04:12:47;;;;;;;24.85;5.18;;;;;;;;;;5070640;28;20396;-80
2024/01/01 04:15:13;;;;;;;14.20;3.25;;;;;;;;;;5060707;28;20072;-79
2024/01/01 04:17:39;;;;;;;15.15;4.15;;;;;;;;;;5057556;28;20041;-80
2024/01/01 04:20:10;;;;;;;18.42;4.32;;;;;;;;;;5068215;28;20050;-80
2024/01/01 04:22:36;;;;;;;17.77;3.83;;;;;;;;;;5057398;28;20052;-80
2024/01/01 04:25:05;;;;;;;14.85;3.65;;;;;;;;;;5060283;28;20048;-79
2024/01/01 04:27:31;;;;;;;15.20;4.05;;;;;;;;;;5069984;28;20040;-80
2024/01/01 04:29:57;;;;;;;14.93;4.05;;;;;;;;;;5066599;28;20415;-80
2024/01/01 04:32:24;;;;;;;20.27;3.90;;;;;;;;;;5068196;28;20075;-79
2024/01/01 04:34:51;;;;;;;20.42;4.70;;;;;;;;;;5087324;28;20378;-80
2024/01/01 04:37:17;;;;;;;19.77;4.22;;;;;;;;;;5060764;28;20049;-80
2024/01/01 04:39:43;;;;;;;17.25;4.28;;;;;;;;;;5082188;28;20119;-79
2024/01/01 04:42:09;;;;;;;20.20;3.85;;;;;;;;;;5073155;28;20528;-79
2024/01/01 04:44:35;;;;;;;17.65;3.85;;;;;;;;;;5064477;28;20059;-80
2024/01/01 04:47:02;;;;;;;19.13;3.85;;;;;;;;;;5082205;28;20059;-80
2024/01/01 04:49:28;;;;;;;11.85;3.60;;;;;;;;;;5066281;28;20044;-80
2024/01/01 04:51:57;;;;;;;11.45;3.60;;;;;;;;;;5064980;28;20095;-80
2024/01/01 04:54:26;;;;;;;14.73;4.28;;;;;;;;;;5086991;28;20126;-79
2024/01/01 04:56:52;;;;;;;20.88;4.60;;;;;;;;;;5063716;28;20044;-80
2024/01/01 04:59:18;;;;;;;23.17;5.10;;;;;;;;;;5084043;28;20056;-80
2024/01/01 05:01:44;;;;;;;20.10;4.63;;;;;;;;;;5064763;28;20107;-79
2024/01/01 05:04:10;;;;;;;12.98;5.13;;;;;;;;;;5064631;28;20055;-79
2024/01/01 05:06:36;;;;;;;24.50;5.40;;;;;;;;;;5067470;28;20064;-80
2024/01/01 05:09:02;;;;;;;18.60;5.22;;;;;;;;;;5068705;28;20419;-80
2024/01/01 05:11:29;;;;;;;16.25;3.70;;;;;;;;;;5067726;28;20055;-79
2024/01/01 05:13:55;;;;;;;17.95;3.78;;;;;;;;;;5057081;28;20058;-80
2024/01/01 05:16:21;;;;;;;17.58;5.00;;;;;;;;;;5065991;28;20044;-80
2024/01/01 05:18:47;;;;;;;26.52;6.07;;;;;;;;;;5088216;28;20048;-80
2024/01/01 05:21:13;;;;;;;24.60;6.28;;;;;;;;;;5069403;28;20063;-80
2024/01/01 05:23:39;;;;;;;28.88;6.45;;;;;;;;;;5069094;28;20484;-80
2024/01/01 05:26:08;;;;;;;28.55;6.15;;;;;;;;;;5070876;28;20040;-80
2024/01/01 05:28:34;;;;;;;21.23;5.50;;;;;;;;;;5071475;28;20052;-80
2024/01/01 05:31:00;;;;;;;21.70;5.88;;;;;;;;;;5072509;28;20044;-80
2024/01/01 05:33:26;;;;;;;19.90;4.38;;;;;;;;;;5069049;28;20051;-80
2024/01/01 05:35:52;;;;;;;9.30;2.95;;;;;;;;;;5075835;28;20040;-80
2024/01/01 05:38:19;;;;;;;7.45;2.90;;;;;;;;;;5072740;28;20101;-80
2024/01/01 05:40:46;;;;;;;10.75;2.70;;;;;;;;;;5066010;28;20182;-79
2024/01/01 05:43:12;;;;;;;11.00;2.53;;;;;;;;;;5066050;28;20052;-80
2024/01/01 05:45:38;;;;;;;9.32;2.50;;;;;;;;;;5064655;28;20409;-80
2024/01/01 05:48:04;;;;;;;8.48;2.85;;;;;;;;;;5063052;28;20131;-80
2024/01/01 05:50:30;;;;;;;8.48;2.70;;;;;;;;;;5062117;28;20464;-79
2024/01/01 05:52:56;;;;;;;10.77;4.22;;;;;;;;;;5083104;28;20549;-80
2024/01/01 05:55:22;;;;;;;20.52;4.65;;;;;;;;;;5061765;28;20503;-80
2024/01/01 05:57:48;;;;;;;16.60;3.97;;;;;;;;;;5063305;28;20052;-79
2024/01/01 06:00:14;;;;;;;14.05;3.20;;;;;;;;;;5060821;28;20137;-80
2024/01/01 06:02:40;;;;;;;10.10;2.58;;;;;;;;;;5081760;28;20055;-80
2024/01/01 06:05:10;;;;;;;14.63;3.42;;;;;;;;;;5065781;28;20043;-79
2024/01/01 06:07:36;;;;;;;9.77;2.95;;;;;;;;;;5065376;28;20060;-79
2024/01/01 06:10:03;;;;;;;7.90;2.63;;;;;;;;;;5065384;28;20078;-78
2024/01/01 06:12:29;;;;;;;4.72;2.05;;;;;;;;;;5064092;28;20044;-78
2024/01/01 06:14:55;;;;;;;7.60;1.98;;;;;;;;;;5065653;28;20044;-79
2024/01/01 06:17:21;;;;;;;4.70;1.40;;;;;;;;;;5059355;28;20090;-78
2024/01/01 06:19:48;;;;;;;3.95;1.70;;;;;;;;;;5068439;28;20090;-79
2024/01/01 06:22:14;;;;;;;8.73;1.88;;;;;;;;;;5084133;28;20120;-79
2024/01/01 06:24:40;;;;;;;5.88;1.77;;;;;;;;;;5072462;28;20036;-79
2024/01/01 06:27:06;;;;;;;10.65;2.33;;;;;;;;;;5088016;28;20515;-79
2024/01/01 06:29:32;;;;;;;4.78;1.67;;;;;;;;;;5083505;28;20519;-79
2024/01/01 06:31:58;;;;;;;10.07;2.13;;;;;;;;;;5063880;28;20044;-79
2024/01/01 06:34:24;;;;;;;6.82;2.03;;;;;;;;;;5080938;28;20042;-79
2024/01/01 06:36:51;;;;;;;6.18;1.90;;;;;;;;;;5086750;28;20071;-79
2024/01/01 06:39:17;;;;;;;10.63;2.47;;;;;;;;;;5067602;28;20462;-79
2024/01/01 06:41:43;;;;;;;8.77;2.88;;;;;;;;;;5065366;28;20127;-79
2024/01/01 06:44:09;;;;;;;7.03;2.28;;;;;;;;;;5064238;28;20480;-79
2024/01/01 06:46:35;;;;;;;8.88;2.28;;;;;;;;;;5064242;28;20510;-79
2024/01/01 06:49:01;;;;;;;11.30;2.97;;;;;;;;;;5059053;28;20475;-79
2024/01/01 06:51:27;;;;;;;9.60;2.63;;;;;;;;;;5067076;28;20105;-79
2024/01/01 06:53:53;;;;;;;13.35;2.97;;;;;;;;;;5058764;28;20071;-79
2024/01/01 06:56:22;;;;;;;14.60;2.85;;;;;;;;;;5064173;28;20435;-79
2024/01/01 06:58:48;;;;;;;12.65;2.97;;;;;;;;;;5066951;28;20096;-79
2024/01/01 07:01:14;;;;;;;20.25;3.85;;;;;;;;;;5059868;28;20052;-79
2024/01/01 07:03:40;;;;;;;14.15;3.40;;;;;;;;;;5069008;28;20097;-79
2024/01/01 07:06:06;;;;;;;14.50;3.55;;;;;;;;;;5069946;28;20104;-79
2024/01/01 07:08:32;;;;;;;12.70;3.17;;;;;;;;;;5068413;28;20066;-79
2024/01/01 07:10:58;;;;;;;13.63;3.58;;;;;;;;;;5073703;28;20130;-79
2024/01/01 07:13:24;;;;;;;14.48;3.83;;;;;;;;;;5074722;28;20472;-80
2024/01/01 07:15:50;;;;;;;12.93;3.63;;;;;;;;;;5065457;28;20499;-79
2024/01/01 07:18:16;;;;;;;20.60;4.07;;;;;;;;;;5072850;28;20052;-80
2024/01/01 07:20:44;;;;;;;16.77;3.97;;;;;;;;;;5070164;28;20048;-80
2024/01/01 07:23:10;;;;;;;12.85;3.03;;;;;;;;;;5070187;28;20040;-80
2024/01/01 07:25:36;;;;;;;17.73;3.80;;;;;;;;;;5064785;28;20127;-80
2024/01/01 07:28:03;;;;;;;13.07;3.22;;;;;;;;;;5066610;28;20127;-80
2024/01/01 07:30:29;;;;;;;15.63;4.20;;;;;;;;;;5063804;28;20051;-79
2024/01/01 07:32:55;;;;;;;14.93;4.88;;;;;;;;;;5054695;28;20492;-79
2024/01/01 07:35:21;;;;;;;15.45;4.40;;;;;;;;;;5075300;28;20044;-79
2024/01/01 07:37:47;;;;;;;15.30;4.03;;;;;;;;;;5074271;28;20047;-79
2024/01/01 07:40:13;;;;;;;17.88;3.90;;;;;;;;;;5065865;28;20408;-80
2024/01/01 07:42:39;;;;;;;14.13;3.78;;;;;;;;;;5062450;28;20044;-80
2024/01/01 07:45:05;;;;;;;11.05;3.58;;;;;;;;;;5063926;28;20449;-80
2024/01/01 07:47:37;;;;;;;13.30;4.82;;;;;;;;;;5060283;28;20048;-80
2024/01/01 07:50:07;;;;;;;11.75;3.72;;;;;;;;;;5059952;28;20044;-80
2024/01/01 07:52:33;;;;;;;12.05;3.55;;;;;;;;;;5063868;28;20523;-79
2024/01/01 07:54:59;;;;;;;14.10;3.65;;;;;;;;;;5063391;28;20567;-80
2024/01/01 07:57:25;;;;;;;12.95;3.55;;;;;;;;;;5056369;28;20517;-80
2024/01/01 07:59:55;;;;;;;10.10;3.30;;;;;;;;;;5078132;28;20056;-79
2024/01/01 08:02:21;;;;;;;11.02;3.28;;;;;;;;;;5063035;28;20051;-79
2024/01/01 08:04:47;;;;;;;12.05;2.53;;;;;;;;;;5063261;28;20044;-79
2024/01/01 08:07:13;;;;;;;12.75;3.10;;;;;;;;;;5062272;28;20579;-80
2024/01/01 08:09:39;;;;;;;10.25;4.15;;;;;;;;;;5066994;28;20119;-80
2024/01/01 08:12:06;;;;;;;15.38;3.65;;;;;;;;;;5084434;28;20104;-80
2024/01/01 08:14:32;;;;;;;9.88;3.30;;;;;;;;;;5068662;28;20055;-80
2024/01/01 08:16:58;;;;;;;12.18;3.05;;;;;;;;;;5065262;28;20032;-80
2024/01/01 08:19:24;;;;;;;16.77;3.40;;;;;;;;;;5067878;28;20032;-80
2024/01/01 08:21:50;;;;;;;12.57;3.30;;;;;;;;;;5062982;28;20058;-79
2024/01/01 08:24:16;;;;;;;11.27;4.03;;;;;;;;;;5058796;28;20392;-80
2024/01/01 08:26:44;;;;;;;18.08;3.75;;;;;;;;;;5058479;28;20041;-80
2024/01/01 08:29:10;;;;;;;9.30;3.50;;;;;;;;;;5068220;28;20044;-80
2024/01/01 08:31:36;;;;;;;11.30;3.20;;;;;;;;;;5058188;28;20071;-80
2024/01/01 08:34:02;;;;;;;13.02;4.00;;;;;;;;;;5065124;28;20070;-80
2024/01/01 08:36:28;;;;;;;12.32;3.22;;;;;;;;;;5065138;28;20064;-80
2024/01/01 08:38:54;;;;;;;16.48;3.67;;;;;;;;;;5058432;28;20145;-80
2024/01/01 08:41:20;;;;;;;15.95;3.30;;;;;;;;;;5062957;28;20052;-79
2024/01/01 08:43:50;;;;;;;9.73;3.33;;;;;;;;;;5066567;28;20419;-80
2024/01/01 08:46:17;;;;;;;20.67;4.35;;;;;;;;;;5085721;28;20150;-80
2024/01/01 08:48:44;;;;;;;15.50;3.40;;;;;;;;;;5059545;28;20051;-80
2024/01/01 08:51:10;;;;;;;16.63;3.78;;;;;;;;;;5082590;28;20055;-80
2024/01/01 08:53:36;;;;;;;11.98;3.58;;;;;;;;;;5063794;28;20127;-80
2024/01/01 08:56:02;;;;;;;13.70;3.75;;;;;;;;;;5069525;28;20139;-79
2024/01/01 08:58:31;;;;;;;13.05;3.05;;;;;;;;;;5070569;28;20119;-79
2024/01/01 09:00:57;;;;;;;11.95;3.72;;;;;;;;;;5064558;28;20048;-80
2024/01/01 09:03:23;;;;;;;9.00;3.08;;;;;;;;;;5072465;28;20047;-79
2024/01/01 09:05:50;;;;;;;20.55;4.93;;;;;;;;;;5062799;28;20040;-80
2024/01/01 09:08:16;;;;;;;20.73;4.57;;;;;;;;;;5068437;28;20082;-80
2024/01/01 09:10:42;;;;;;;21.85;5.07;;;;;;;;;;5072058;28;20041;-81
2024/01/01 09:13:08;;;;;;;20.90;4.57;;;;;;;;;;5068832;28;20044;-80
2024/01/01 09:15:34;;;;;;;18.52;4.32;;;;;;;;;;5068933;28;20066;-79
2024/01/01 09:18:00;;;;;;;10.10;3.45;;;;;;;;;;5068734;28;20048;-80
2024/01/01 09:20:26;;;;;;;12.77;4.70;;;;;;;;;;5061884;28;20044;-80
2024/01/01 09:22:53;;;;;;;21.13;4.72;;;;;;;;;;5065121;28;20044;-81
2024/01/01 09:25:19;;;;;;;11.68;3.60;;;;;;;;;;5060148;28;20127;-79
2024/01/01 09:27:45;;;;;;;17.10;4.30;;;;;;;;;;5057550;28;20491;-78
2024/01/01 09:30:12;;;;;;;19.23;4.45;;;;;;;;;;5058300;28;20040;-80
2024/01/01 09:32:38;;;;;;;15.95;4.10;;;;;;;;;;5064167;28;20434;-80
2024/01/01 09:35:04;;;;;;;21.42;4.18;;;;;;;;;;5068666;28;20051;-80
2024/01/01 09:37:30;;;;;;;14.55;4.10;;;;;;;;;;5089201;28;20036;-79
2024/01/01 09:39:56;;;;;;;16.10;4.07;;;;;;;;;;5084616;28;20044;-80
2024/01/01 09:42:22;;;;;;;19.25;4.38;;;;;;;;;;5066337;28;20044;-79
2024/01/01 09:44:57;;;;;;;16.38;4.28;;;;;;;;;;5070015;28;20480;-80
2024/01/01 09:47:23;;;;;;;20.35;4.88;;;;;;;;;;5075934;28;20089;-80
2024/01/01 09:49:49;;;;;;;21.67;5.43;;;;;;;;;;5068348;28;20135;-80
2024/01/01 09:52:16;;;;;;;16.15;4.30;;;;;;;;;;5059637;28;20044;-81
2024/01/01 09:54:42;;;;;;;16.45;3.92;;;;;;;;;;5067327;28;20441;-78
2024/01/01 09:57:08;;;;;;;11.82;3.13;;;;;;;;;;5062670;28;20063;-79
2024/01/01 09:59:38;;;;;;;13.38;3.42;;;;;;;;;;5067632;28;20063;-79
2024/01/01 10:02:05;;;;;;;13.38;4.03;;;;;;;;;;5063538;28;20071;-81
2024/01/01 10:04:31;;;;;;;16.77;4.20;;;;;;;;;;5065843;28;20036;-80
2024/01/01 10:07:00;;;;;;;13.88;3.55;;;;;;;;;;5064120;28;20036;-80
2024/01/01 10:09:27;;;;;;;19.13;3.88;;;;;;;;;;5066331;28;20040;-78
2024/01/01 10:11:54;;;;;;;13.02;3.63;;;;;;;;;;5064235;28;20048;-81
2024/01/01 10:14:20;;;;;;;15.43;3.90;;;;;;;;;;5068048;28;20050;-79
2024/01/01 10:16:46;;;;;;;15.90;3.85;;;;;;;;;;5063875;28;20043;-81
2024/01/01 10:19:13;;;;;;;15.63;4.53;;;;;;;;;;5066544;28;20450;-81
2024/01/01 10:21:41;;;;;;;16.42;3.45;;;;;;;;;;5081789;28;20089;-81
2024/01/01 10:24:17;;;;;;;13.85;4.55;;;;;;;;;;5079578;28;20055;-80
2024/01/01 10:26:44;;;;;;;17.17;4.88;;;;;;;;;;5083758;28;20044;-79
2024/01/01 10:29:12;;;;;;;16.95;3.75;;;;;;;;;;5063000;28;20062;-81
2024/01/01 10:31:44;;;;;;;11.80;3.58;;;;;;;;;;5064869;28;20040;-80
2024/01/01 10:34:10;;;;;;;14.77;3.38;;;;;;;;;;5070211;28;20074;-80
2024/01/01 10:36:36;;;;;;;11.85;3.38;;;;;;;;;;5075352;28;20049;-80
2024/01/01 10:39:03;;;;;;;11.70;4.18;;;;;;;;;;5087406;28;20036;-80
2024/01/01 10:41:29;;;;;;;16.55;4.30;;;;;;;;;;5086563;28;20369;-80
2024/01/01 10:43:56;;;;;;;11.02;3.70;;;;;;;;;;5068999;28;20036;-82
2024/01/01 10:46:22;;;;;;;14.65;3.55;;;;;;;;;;5060347;28;20202;-81
2024/01/01 10:48:48;;;;;;;13.35;3.83;;;;;;;;;;5063424;28;20456;-80
2024/01/01 10:51:14;;;;;;;21.88;5.05;;;;;;;;;;5067365;28;20403;-79
2024/01/01 10:53:55;;;;;;;8.70;3.20;;;;;;;;;;5067156;28;20028;-80
2024/01/01 10:56:33;;;;;;;13.73;3.33;;;;;;;;;;5064437;28;20055;-80
2024/01/01 10:59:07;;;;;;;11.18;3.05;;;;;;;;;;5058885;28;20055;-81
2024/01/01 11:01:36;;;;;;;12.20;3.92;;;;;;;;;;5064029;28;20044;-80
2024/01/01 11:04:02;;;;;;;16.38;4.50;;;;;;;;;;5070853;28;20074;-81
2024/01/01 11:06:31;;;;;;;15.98;3.50;;;;;;;;;;5069213;28;20085;-81
2024/01/01 11:08:58;;;;;;;12.43;3.92;;;;;;;;;;5069056;28;20053;-81
2024/01/01 11:11:30;;;;;;;10.30;4.13;;;;;;;;;;5068270;28;20118;-81
2024/01/01 11:14:00;;;;;;;11.10;3.83;;;;;;;;;;5066815;28;20048;-81
2024/01/01 11:16:26;;;;;;;16.73;3.78;;;;;;;;;;5061512;28;20056;-80
2024/01/01 11:18:52;;;;;;;11.77;3.60;;;;;;;;;;5063518;28;20123;-80
2024/01/01 11:21:29;;;;;;;8.30;2.45;;;;;;;;;;5065635;28;20471;-82
2024/01/01 11:23:56;;;;;;;14.45;3.60;;;;;;;;;;5061794;28;20044;-80
2024/01/01 11:26:35;;;;;;;18.00;4.45;;;;;;;;;;5070619;28;20101;-81
2024/01/01 11:29:27;;;;;;;12.50;3.33;;;;;;;;;;5065956;28;20052;-81
2024/01/01 11:32:03;;;;;;;16.88;3.97;;;;;;;;;;5064586;28;20086;-81
2024/01/01 11:34:29;;;;;;;9.50;2.85;;;;;;;;;;5065490;28;20085;-81
2024/01/01 11:36:55;;;;;;;10.40;3.33;;;;;;;;;;5068307;28;20087;-80
2024/01/01 11:39:24;;;;;;;13.15;3.22;;;;;;;;;;5064331;28;20079;-82
2024/01/01 11:41:50;;;;;;;15.75;4.55;;;;;;;;;;5070246;28;20105;-81
2024/01/01 11:44:18;;;;;;;7.57;3.00;;;;;;;;;;5067825;28;20078;-82
2024/01/01 11:46:46;;;;;;;9.77;3.75;;;;;;;;;;5065704;28;20055;-80
2024/01/01 11:49:21;;;;;;;13.77;3.90;;;;;;;;;;5064152;28;20044;-81
2024/01/01 11:51:53;;;;;;;14.38;3.88;;;;;;;;;;5069203;28;20044;-81
2024/01/01 11:54:19;;;;;;;12.80;3.40;;;;;;;;;;5065997;28;20105;-81
2024/01/01 11:56:46;;;;;;;12.43;3.08;;;;;;;;;;5070703;28;20474;-81
2024/01/01 11:59:12;;;;;;;14.65;3.95;;;;;;;;;;5078930;28;20060;-82
2024/01/01 12:01:40;;;;;;;12.75;3.47;;;;;;;;;;5065529;28;20135;-81
2024/01/01 12:04:09;;;;;;;24.95;11.55;;;;;;;;;;5063715;28;20044;-81
2024/01/01 12:06:35;;;;;;;14.02;3.85;;;;;;;;;;5069881;28;20051;-81
2024/01/01 12:09:11;;;;;;;13.00;3.63;;;;;;;;;;5071907;28;20553;-81
2024/01/01 12:11:38;;;;;;;16.55;4.03;;;;;;;;;;5062323;28;20054;-81
2024/01/01 12:14:04;;;;;;;13.10;3.38;;;;;;;;;;5071354;28;20040;-81
2024/01/01 12:16:31;;;;;;;12.63;3.13;;;;;;;;;;5061319;28;20048;-81
2024/01/01 12:18:57;;;;;;;11.55;3.85;;;;;;;;;;5063845;28;20392;-81
2024/01/01 12:21:24;;;;;;;14.93;3.95;;;;;;;;;;5065289;28;20059;-80
2024/01/01 12:23:50;;;;;;;11.73;3.97;;;;;;;;;;5061117;28;20040;-81
2024/01/01 12:26:22;;;;;;;12.82;3.30;;;;;;;;;;5059647;28;20488;-79
2024/01/01 12:29:05;;;;;;;11.18;3.15;;;;;;;;;;5059178;28;20089;-81
2024/01/01 12:31:31;;;;;;;13.07;4.22;;;;;;;;;;5068757;28;20101;-81
2024/01/01 12:33:57;;;;;;;12.85;3.55;;;;;;;;;;5066425;28;20056;-82
2024/01/01 12:36:23;;;;;;;11.38;3.50;;;;;;;;;;5069738;28;20040;-78
2024/01/01 12:38:48;;;;;;;8.98;3.22;;;;;;;;;;5072693;28;20044;-79
2024/01/01 12:41:19;;;;;;;14.10;3.50;;;;;;;;;;5069967;28;20048;-81
2024/01/01 12:43:45;;;;;;;11.82;3.67;;;;;;;;;;5061895;28;20051;-82
2024/01/01 12:46:14;;;;;;;12.80;3.58;;;;;;;;;;5065425;28;20130;-79
2024/01/01 12:48:46;;;;;;;12.82;4.00;;;;;;;;;;5070018;28;20507;-82
2024/01/01 12:51:16;;;;;;;10.33;3.20;;;;;;;;;;5064502;28;20044;-81
2024/01/01 12:53:42;;;;;;;13.73;3.70;;;;;;;;;;5067545;28;20052;-80
2024/01/01 12:56:09;;;;;;;15.25;3.40;;;;;;;;;;5064900;28;20047;-80
2024/01/01 12:58:35;;;;;;;11.23;3.38;;;;;;;;;;5067643;28;20083;-81
2024/01/01 13:01:01;;;;;;;10.27;3.58;;;;;;;;;;5067304;28;20106;-81
2024/01/01 13:03:27;;;;;;;10.70;4.38;;;;;;;;;;5089288;28;20811;-82
2024/01/01 13:05:53;;;;;;;9.60;3.13;;;;;;;;;;5070971;28;20048;-82
2024/01/01 13:08:19;;;;;;;12.20;4.20;;;;;;;;;;5065446;28;20196;-81
2024/01/01 13:10:45;;;;;;;12.93;3.90;;;;;;;;;;5067628;28;20040;-82
2024/01/01 13:13:11;;;;;;;9.20;3.53;;;;;;;;;;5071824;28;20032;-82
2024/01/01 13:15:38;;;;;;;16.95;3.97;;;;;;;;;;5072636;28;20036;-81
2024/01/01 13:18:05;;;;;;;7.95;3.22;;;;;;;;;;5073455;28;20052;-81
2024/01/01 13:20:31;;;;;;;7.13;2.30;;;;;;;;;;5088790;28;20045;-81
2024/01/01 13:22:57;;;;;;;15.70;3.75;;;;;;;;;;5071683;28;20088;-81
2024/01/01 13:25:24;;;;;;;15.10;4.35;;;;;;;;;;5066420;28;20035;-80
2024/01/01 13:27:51;;;;;;;8.73;3.33;;;;;;;;;;5086797;28;20115;-81
2024/01/01 13:30:17;;;;;;;13.63;3.85;;;;;;;;;;5086006;28;20080;-81
2024/01/01 13:32:44;;;;;;;15.50;3.88;;;;;;;;;;5070284;28;20032;-81
2024/01/01 13:35:10;;;;;;;15.38;4.20;;;;;;;;;;5067229;28;20071;-81
2024/01/01 13:37:37;;;;;;;11.68;3.67;;;;;;;;;;5072951;28;20053;-82
2024/01/01 13:40:04;;;;;;;11.48;4.18;;;;;;;;;;5073674;28;20051;-81
2024/01/01 13:42:33;;;;;;;15.52;4.38;;;;;;;;;;5065702;28;20078;-80
2024/01/01 13:45:02;;;;;;;11.65;2.92;;;;;;;;;;5070401;28;20032;-80
2024/01/01 13:47:28;;;;;;;11.90;2.75;;;;;;;;;;5061748;28;20052;-80
2024/01/01 13:49:54;;;;;;;8.57;3.25;;;;;;;;;;5073437;28;20050;-80
2024/01/01 13:52:20;;;;;;;12.90;3.47;;;;;;;;;;5073948;28;20036;-80
2024/01/01 13:54:46;;;;;;;14.75;3.53;;;;;;;;;;5073569;28;20048;-81
2024/01/01 13:57:12;;;;;;;9.82;3.45;;;;;;;;;;5069453;28;20404;-81
2024/01/01 13:59:39;;;;;;;13.75;3.88;;;;;;;;;;5070411;28;20056;-80
2024/01/01 14:02:07;;;;;;;13.07;3.97;;;;;;;;;;5070416;28;20048;-80
2024/01/01 14:04:33;;;;;;;14.85;3.65;;;;;;;;;;5072008;28;20044;-79
2024/01/01 14:06:59;;;;;;;19.73;3.75;;;;;;;;;;5067998;28;20067;-80
2024/01/01 14:09:25;;;;;;;12.30;3.55;;;;;;;;;;5064482;28;20488;-81
2024/01/01 14:11:52;;;;;;;13.13;3.28;;;;;;;;;;5070942;28;20040;-80
2024/01/01 14:14:18;;;;;;;11.45;3.33;;;;;;;;;;5071662;28;20041;-81
2024/01/01 14:16:45;;;;;;;12.80;2.90;;;;;;;;;;5068678;28;20056;-81
2024/01/01 14:19:11;;;;;;;11.60;3.08;;;;;;;;;;5066530;28;20429;-80
2024/01/01 14:21:38;;;;;;;14.90;3.88;;;;;;;;;;5063980;28;20056;-80
2024/01/01 14:24:05;;;;;;;11.05;3.30;;;;;;;;;;5068270;28;20062;-82
2024/01/01 14:26:31;;;;;;;13.70;3.83;;;;;;;;;;5065250;28;20109;-80